Terminal Aerodrome Forecast
Issued by NWS

Home | Current Version | Previous Version | Text Only | Print | Product List | Glossary On
Versions: 1 2 3 4 5 6 7 8 9 10 11 12 13 14 15 16 17 18 19 20 21 22 23 24 25 26 27 28 29 30 31 32 33 34 35
000
FTUS46 KLOX 300657 AAA
TAFLAX
TAF AMD
KLAX 300657Z 3007/3112 33006KT P6SM SCT012 BKN150
     FM301600 VRB03KT P6SM SCT015 BKN100
     FM301900 26012KT P6SM SCT040 BKN080
     FM310400 28007KT P6SM SCT040 BKN080=

USA.gov is the U.S. government's official web portal to all federal, state and local government web resources and services.